sensor_id;sensor_type;location;lat;lon;timestamp;P1;durP1;ratioP1;P2;durP2;ratioP2
20067;SDS011;10194;50.824;7.134;2022-08-01T00:00:12;1.58;;;1.48;;
20067;SDS011;10194;50.824;7.134;2022-08-01T00:02:38;2.90;;;1.55;;
20067;SDS011;10194;50.824;7.134;2022-08-01T00:05:05;2.25;;;1.65;;
20067;SDS011;10194;50.824;7.134;2022-08-01T00:07:33;4.28;;;1.50;;
20067;SDS011;10194;50.824;7.134;2022-08-01T00:10:00;2.60;;;1.75;;
20067;SDS011;10194;50.824;7.134;2022-08-01T00:12:30;2.72;;;2.03;;
20067;SDS011;10194;50.824;7.134;2022-08-01T00:14:56;2.80;;;2.03;;
20067;SDS011;10194;50.824;7.134;2022-08-01T00:17:22;4.15;;;2.10;;
20067;SDS011;10194;50.824;7.134;2022-08-01T00:19:48;3.42;;;1.88;;
20067;SDS011;10194;50.824;7.134;2022-08-01T00:22:14;5.68;;;2.05;;
20067;SDS011;10194;50.824;7.134;2022-08-01T00:24:39;1.80;;;1.40;;
20067;SDS011;10194;50.824;7.134;2022-08-01T00:27:05;2.63;;;1.75;;
20067;SDS011;10194;50.824;7.134;2022-08-01T00:29:31;2.38;;;1.83;;
20067;SDS011;10194;50.824;7.134;2022-08-01T00:31:57;2.00;;;1.50;;
20067;SDS011;10194;50.824;7.134;2022-08-01T00:34:22;1.92;;;1.70;;
20067;SDS011;10194;50.824;7.134;2022-08-01T00:36:48;2.35;;;1.73;;
20067;SDS011;10194;50.824;7.134;2022-08-01T00:39:14;2.83;;;1.70;;
20067;SDS011;10194;50.824;7.134;2022-08-01T00:41:40;2.53;;;1.90;;
20067;SDS011;10194;50.824;7.134;2022-08-01T00:44:05;2.53;;;1.42;;
20067;SDS011;10194;50.824;7.134;2022-08-01T00:46:32;2.42;;;1.60;;
20067;SDS011;10194;50.824;7.134;2022-08-01T00:48:58;3.45;;;1.60;;
20067;SDS011;10194;50.824;7.134;2022-08-01T00:51:25;2.40;;;1.73;;
20067;SDS011;10194;50.824;7.134;2022-08-01T00:53:52;2.83;;;1.77;;
20067;SDS011;10194;50.824;7.134;2022-08-01T00:56:19;3.15;;;1.75;;
20067;SDS011;10194;50.824;7.134;2022-08-01T00:58:47;2.83;;;1.80;;
20067;SDS011;10194;50.824;7.134;2022-08-01T01:01:13;3.55;;;2.00;;
20067;SDS011;10194;50.824;7.134;2022-08-01T01:03:39;2.50;;;1.83;;
20067;SDS011;10194;50.824;7.134;2022-08-01T01:06:07;3.28;;;2.00;;
20067;SDS011;10194;50.824;7.134;2022-08-01T01:09:11;2.72;;;1.88;;
20067;SDS011;10194;50.824;7.134;2022-08-01T01:17:35;3.72;;;1.70;;
20067;SDS011;10194;50.824;7.134;2022-08-01T01:20:07;2.42;;;1.80;;
20067;SDS011;10194;50.824;7.134;2022-08-01T01:28:06;2.05;;;1.85;;
20067;SDS011;10194;50.824;7.134;2022-08-01T01:30:42;3.58;;;1.90;;
20067;SDS011;10194;50.824;7.134;2022-08-01T01:33:11;3.25;;;2.20;;
20067;SDS011;10194;50.824;7.134;2022-08-01T01:35:41;4.50;;;1.73;;
20067;SDS011;10194;50.824;7.134;2022-08-01T01:38:14;2.20;;;2.00;;
20067;SDS011;10194;50.824;7.134;2022-08-01T01:40:47;4.22;;;1.90;;
20067;SDS011;10194;50.824;7.134;2022-08-01T01:43:15;2.53;;;1.92;;
20067;SDS011;10194;50.824;7.134;2022-08-01T01:45:43;2.30;;;2.00;;
20067;SDS011;10194;50.824;7.134;2022-08-01T01:48:12;3.30;;;2.28;;
20067;SDS011;10194;50.824;7.134;2022-08-01T01:50:42;4.28;;;2.22;;
20067;SDS011;10194;50.824;7.134;2022-08-01T01:53:12;2.65;;;2.15;;
20067;SDS011;10194;50.824;7.134;2022-08-01T01:55:41;2.97;;;2.30;;
20067;SDS011;10194;50.824;7.134;2022-08-01T01:58:09;4.20;;;2.63;;
20067;SDS011;10194;50.824;7.134;2022-08-01T02:00:38;3.28;;;2.25;;
20067;SDS011;10194;50.824;7.134;2022-08-01T02:03:07;5.20;;;3.03;;
20067;SDS011;10194;50.824;7.134;2022-08-01T02:05:37;5.45;;;3.03;;
20067;SDS011;10194;50.824;7.134;2022-08-01T02:08:05;5.13;;;3.05;;
20067;SDS011;10194;50.824;7.134;2022-08-01T02:10:32;5.95;;;3.10;;
20067;SDS011;10194;50.824;7.134;2022-08-01T02:13:01;4.70;;;3.15;;
20067;SDS011;10194;50.824;7.134;2022-08-01T02:15:32;7.68;;;2.88;;
20067;SDS011;10194;50.824;7.134;2022-08-01T02:18:04;5.35;;;2.75;;
20067;SDS011;10194;50.824;7.134;2022-08-01T02:20:32;3.85;;;2.58;;
20067;SDS011;10194;50.824;7.134;2022-08-01T02:23:07;4.13;;;2.70;;
20067;SDS011;10194;50.824;7.134;2022-08-01T02:25:48;4.20;;;2.38;;
20067;SDS011;10194;50.824;7.134;2022-08-01T02:28:29;3.20;;;2.50;;
20067;SDS011;10194;50.824;7.134;2022-08-01T02:31:02;5.65;;;2.63;;
20067;SDS011;10194;50.824;7.134;2022-08-01T02:33:38;3.95;;;2.88;;
20067;SDS011;10194;50.824;7.134;2022-08-01T02:36:07;4.05;;;2.50;;
20067;SDS011;10194;50.824;7.134;2022-08-01T02:38:34;3.75;;;2.30;;
20067;SDS011;10194;50.824;7.134;2022-08-01T02:41:05;4.80;;;2.47;;
20067;SDS011;10194;50.824;7.134;2022-08-01T02:43:40;3.33;;;2.42;;
20067;SDS011;10194;50.824;7.134;2022-08-01T02:46:09;4.57;;;2.50;;
20067;SDS011;10194;50.824;7.134;2022-08-01T02:48:43;3.70;;;2.75;;
20067;SDS011;10194;50.824;7.134;2022-08-01T02:51:10;5.93;;;2.97;;
20067;SDS011;10194;50.824;7.134;2022-08-01T02:53:38;4.47;;;2.92;;
20067;SDS011;10194;50.824;7.134;2022-08-01T02:56:06;3.83;;;2.70;;
20067;SDS011;10194;50.824;7.134;2022-08-01T02:58:34;5.20;;;3.13;;
20067;SDS011;10194;50.824;7.134;2022-08-01T03:01:02;5.30;;;3.00;;
20067;SDS011;10194;50.824;7.134;2022-08-01T03:03:30;7.65;;;3.70;;
20067;SDS011;10194;50.824;7.134;2022-08-01T03:05:57;4.13;;;3.30;;
20067;SDS011;10194;50.824;7.134;2022-08-01T03:08:24;3.50;;;2.80;;
20067;SDS011;10194;50.824;7.134;2022-08-01T03:10:53;4.97;;;2.72;;
20067;SDS011;10194;50.824;7.134;2022-08-01T03:13:20;4.95;;;2.83;;
20067;SDS011;10194;50.824;7.134;2022-08-01T03:15:48;6.75;;;3.15;;
20067;SDS011;10194;50.824;7.134;2022-08-01T03:18:15;5.68;;;3.10;;
20067;SDS011;10194;50.824;7.134;2022-08-01T03:20:42;4.70;;;3.00;;
20067;SDS011;10194;50.824;7.134;2022-08-01T03:23:10;4.68;;;2.92;;
20067;SDS011;10194;50.824;7.134;2022-08-01T03:25:38;6.43;;;3.10;;
20067;SDS011;10194;50.824;7.134;2022-08-01T03:28:06;9.85;;;3.70;;
20067;SDS011;10194;50.824;7.134;2022-08-01T03:30:34;5.10;;;3.45;;
20067;SDS011;10194;50.824;7.134;2022-08-01T03:33:03;5.05;;;3.30;;
20067;SDS011;10194;50.824;7.134;2022-08-01T03:35:30;4.43;;;3.10;;
20067;SDS011;10194;50.824;7.134;2022-08-01T03:37:59;6.82;;;3.22;;
20067;SDS011;10194;50.824;7.134;2022-08-01T03:40:32;4.35;;;3.03;;
20067;SDS011;10194;50.824;7.134;2022-08-01T03:43:22;5.50;;;3.72;;
20067;SDS011;10194;50.824;7.134;2022-08-01T03:46:01;7.22;;;3.40;;
20067;SDS011;10194;50.824;7.134;2022-08-01T03:48:33;7.07;;;3.53;;
20067;SDS011;10194;50.824;7.134;2022-08-01T03:51:04;6.68;;;3.92;;
20067;SDS011;10194;50.824;7.134;2022-08-01T03:53:32;7.05;;;3.60;;
20067;SDS011;10194;50.824;7.134;2022-08-01T03:56:00;6.50;;;4.00;;
20067;SDS011;10194;50.824;7.134;2022-08-01T03:58:30;8.13;;;4.28;;
20067;SDS011;10194;50.824;7.134;2022-08-01T04:00:56;7.22;;;3.90;;
20067;SDS011;10194;50.824;7.134;2022-08-01T04:03:23;7.43;;;3.78;;
20067;SDS011;10194;50.824;7.134;2022-08-01T04:05:49;8.45;;;4.28;;
20067;SDS011;10194;50.824;7.134;2022-08-01T04:08:15;7.18;;;3.70;;
20067;SDS011;10194;50.824;7.134;2022-08-01T04:10:41;7.90;;;4.28;;
20067;SDS011;10194;50.824;7.134;2022-08-01T04:13:07;5.78;;;3.60;;
20067;SDS011;10194;50.824;7.134;2022-08-01T04:15:33;6.30;;;3.88;;
20067;SDS011;10194;50.824;7.134;2022-08-01T04:17:59;9.43;;;4.47;;
20067;SDS011;10194;50.824;7.134;2022-08-01T04:20:25;6.78;;;4.68;;
20067;SDS011;10194;50.824;7.134;2022-08-01T04:22:51;9.75;;;5.05;;
20067;SDS011;10194;50.824;7.134;2022-08-01T04:25:28;10.90;;;5.00;;
20067;SDS011;10194;50.824;7.134;2022-08-01T04:27:59;9.57;;;4.57;;
20067;SDS011;10194;50.824;7.134;2022-08-01T04:30:29;8.98;;;4.65;;
20067;SDS011;10194;50.824;7.134;2022-08-01T04:33:00;7.22;;;4.90;;
20067;SDS011;10194;50.824;7.134;2022-08-01T04:35:28;9.95;;;5.10;;
20067;SDS011;10194;50.824;7.134;2022-08-01T04:37:54;7.80;;;5.15;;
20067;SDS011;10194;50.824;7.134;2022-08-01T04:40:21;7.05;;;5.00;;
20067;SDS011;10194;50.824;7.134;2022-08-01T04:42:49;8.07;;;5.65;;
20067;SDS011;10194;50.824;7.134;2022-08-01T04:45:15;10.75;;;6.32;;
20067;SDS011;10194;50.824;7.134;2022-08-01T04:47:42;11.70;;;6.07;;
20067;SDS011;10194;50.824;7.134;2022-08-01T04:50:09;11.38;;;5.80;;
20067;SDS011;10194;50.824;7.134;2022-08-01T04:52:36;9.93;;;5.05;;
20067;SDS011;10194;50.824;7.134;2022-08-01T04:55:04;9.77;;;5.07;;
20067;SDS011;10194;50.824;7.134;2022-08-01T04:57:37;7.82;;;4.88;;
20067;SDS011;10194;50.824;7.134;2022-08-01T05:00:06;9.95;;;5.07;;
20067;SDS011;10194;50.824;7.134;2022-08-01T05:02:33;9.45;;;5.15;;
20067;SDS011;10194;50.824;7.134;2022-08-01T05:04:59;15.85;;;5.30;;
20067;SDS011;10194;50.824;7.134;2022-08-01T05:07:25;8.82;;;5.28;;
20067;SDS011;10194;50.824;7.134;2022-08-01T05:09:51;12.10;;;6.03;;
20067;SDS011;10194;50.824;7.134;2022-08-01T05:12:17;15.65;;;5.50;;
20067;SDS011;10194;50.824;7.134;2022-08-01T05:14:43;13.05;;;5.63;;
20067;SDS011;10194;50.824;7.134;2022-08-01T05:17:10;9.77;;;5.43;;
20067;SDS011;10194;50.824;7.134;2022-08-01T05:19:37;12.63;;;6.18;;
20067;SDS011;10194;50.824;7.134;2022-08-01T05:22:05;14.23;;;7.10;;
20067;SDS011;10194;50.824;7.134;2022-08-01T05:24:37;11.95;;;7.00;;
20067;SDS011;10194;50.824;7.134;2022-08-01T05:27:04;10.43;;;7.07;;
20067;SDS011;10194;50.824;7.134;2022-08-01T05:29:32;13.15;;;7.00;;
20067;SDS011;10194;50.824;7.134;2022-08-01T05:31:59;11.77;;;7.15;;
20067;SDS011;10194;50.824;7.134;2022-08-01T05:34:25;11.10;;;7.13;;
20067;SDS011;10194;50.824;7.134;2022-08-01T05:36:52;15.23;;;8.00;;
20067;SDS011;10194;50.824;7.134;2022-08-01T05:39:17;13.70;;;7.40;;
20067;SDS011;10194;50.824;7.134;2022-08-01T05:41:43;12.38;;;7.20;;
20067;SDS011;10194;50.824;7.134;2022-08-01T05:44:09;9.25;;;6.85;;
20067;SDS011;10194;50.824;7.134;2022-08-01T05:46:36;13.23;;;7.22;;
20067;SDS011;10194;50.824;7.134;2022-08-01T05:49:03;11.45;;;7.40;;
20067;SDS011;10194;50.824;7.134;2022-08-01T05:51:30;12.55;;;7.38;;
20067;SDS011;10194;50.824;7.134;2022-08-01T05:53:56;14.30;;;7.85;;
20067;SDS011;10194;50.824;7.134;2022-08-01T05:56:23;12.50;;;6.97;;
20067;SDS011;10194;50.824;7.134;2022-08-01T05:58:49;11.85;;;7.50;;
20067;SDS011;10194;50.824;7.134;2022-08-01T06:01:16;14.05;;;8.27;;
20067;SDS011;10194;50.824;7.134;2022-08-01T06:03:42;11.40;;;7.43;;
20067;SDS011;10194;50.824;7.134;2022-08-01T06:06:08;12.77;;;8.30;;
20067;SDS011;10194;50.824;7.134;2022-08-01T06:08:34;12.95;;;8.68;;
20067;SDS011;10194;50.824;7.134;2022-08-01T06:11:00;14.57;;;9.85;;
20067;SDS011;10194;50.824;7.134;2022-08-01T06:13:26;15.73;;;10.13;;
20067;SDS011;10194;50.824;7.134;2022-08-01T06:15:52;15.00;;;9.32;;
20067;SDS011;10194;50.824;7.134;2022-08-01T06:18:18;12.60;;;8.60;;
20067;SDS011;10194;50.824;7.134;2022-08-01T06:20:44;18.92;;;10.32;;
20067;SDS011;10194;50.824;7.134;2022-08-01T06:23:10;14.82;;;10.20;;
20067;SDS011;10194;50.824;7.134;2022-08-01T06:25:36;18.23;;;10.90;;
20067;SDS011;10194;50.824;7.134;2022-08-01T06:28:01;17.92;;;11.50;;
20067;SDS011;10194;50.824;7.134;2022-08-01T06:30:28;15.70;;;10.35;;
20067;SDS011;10194;50.824;7.134;2022-08-01T06:32:54;16.60;;;10.73;;
20067;SDS011;10194;50.824;7.134;2022-08-01T06:35:24;16.25;;;10.43;;
20067;SDS011;10194;50.824;7.134;2022-08-01T06:37:51;18.45;;;9.52;;
20067;SDS011;10194;50.824;7.134;2022-08-01T06:40:17;17.10;;;10.82;;
20067;SDS011;10194;50.824;7.134;2022-08-01T06:42:43;14.07;;;9.68;;
20067;SDS011;10194;50.824;7.134;2022-08-01T06:45:11;13.70;;;9.35;;
20067;SDS011;10194;50.824;7.134;2022-08-01T06:47:38;12.23;;;8.65;;
20067;SDS011;10194;50.824;7.134;2022-08-01T06:50:05;11.43;;;7.85;;
20067;SDS011;10194;50.824;7.134;2022-08-01T06:52:33;9.25;;;6.35;;
20067;SDS011;10194;50.824;7.134;2022-08-01T06:54:59;11.88;;;7.18;;
20067;SDS011;10194;50.824;7.134;2022-08-01T06:57:26;10.48;;;6.72;;
20067;SDS011;10194;50.824;7.134;2022-08-01T06:59:52;10.15;;;7.18;;
20067;SDS011;10194;50.824;7.134;2022-08-01T07:02:18;9.38;;;6.20;;
20067;SDS011;10194;50.824;7.134;2022-08-01T07:04:44;8.77;;;7.13;;
20067;SDS011;10194;50.824;7.134;2022-08-01T07:07:10;9.73;;;6.28;;
20067;SDS011;10194;50.824;7.134;2022-08-01T07:09:36;8.70;;;6.18;;
20067;SDS011;10194;50.824;7.134;2022-08-01T07:12:02;8.65;;;6.10;;
20067;SDS011;10194;50.824;7.134;2022-08-01T07:14:29;9.73;;;6.45;;
20067;SDS011;10194;50.824;7.134;2022-08-01T07:16:54;8.52;;;6.35;;
20067;SDS011;10194;50.824;7.134;2022-08-01T07:19:20;8.93;;;6.78;;
20067;SDS011;10194;50.824;7.134;2022-08-01T07:21:46;8.90;;;6.97;;
20067;SDS011;10194;50.824;7.134;2022-08-01T07:24:12;11.23;;;7.28;;
20067;SDS011;10194;50.824;7.134;2022-08-01T07:26:43;9.63;;;6.43;;
20067;SDS011;10194;50.824;7.134;2022-08-01T07:29:11;8.43;;;6.28;;
20067;SDS011;10194;50.824;7.134;2022-08-01T07:31:37;10.45;;;6.35;;
20067;SDS011;10194;50.824;7.134;2022-08-01T07:34:03;11.07;;;6.72;;
20067;SDS011;10194;50.824;7.134;2022-08-01T07:36:29;10.43;;;6.47;;
20067;SDS011;10194;50.824;7.134;2022-08-01T07:38:55;9.50;;;6.82;;
20067;SDS011;10194;50.824;7.134;2022-08-01T07:41:21;12.82;;;7.45;;
20067;SDS011;10194;50.824;7.134;2022-08-01T07:43:48;11.43;;;6.90;;
20067;SDS011;10194;50.824;7.134;2022-08-01T07:46:14;11.95;;;7.80;;
20067;SDS011;10194;50.824;7.134;2022-08-01T07:48:41;15.60;;;7.50;;
20067;SDS011;10194;50.824;7.134;2022-08-01T07:51:07;8.48;;;6.55;;
20067;SDS011;10194;50.824;7.134;2022-08-01T07:53:35;10.93;;;6.82;;
20067;SDS011;10194;50.824;7.134;2022-08-01T07:56:01;8.85;;;6.75;;
20067;SDS011;10194;50.824;7.134;2022-08-01T07:58:30;13.07;;;8.43;;
20067;SDS011;10194;50.824;7.134;2022-08-01T08:00:57;12.60;;;7.53;;
20067;SDS011;10194;50.824;7.134;2022-08-01T08:03:23;10.60;;;7.43;;
20067;SDS011;10194;50.824;7.134;2022-08-01T08:05:49;14.20;;;8.27;;
20067;SDS011;10194;50.824;7.134;2022-08-01T08:08:15;11.20;;;7.47;;
20067;SDS011;10194;50.824;7.134;2022-08-01T08:10:43;9.02;;;7.35;;
20067;SDS011;10194;50.824;7.134;2022-08-01T08:13:09;12.07;;;7.88;;
20067;SDS011;10194;50.824;7.134;2022-08-01T08:15:35;8.45;;;7.10;;
20067;SDS011;10194;50.824;7.134;2022-08-01T08:18:02;10.52;;;8.18;;
20067;SDS011;10194;50.824;7.134;2022-08-01T08:20:28;11.65;;;7.53;;
20067;SDS011;10194;50.824;7.134;2022-08-01T08:22:55;11.73;;;8.00;;
20067;SDS011;10194;50.824;7.134;2022-08-01T08:25:23;10.48;;;7.15;;
20067;SDS011;10194;50.824;7.134;2022-08-01T08:27:50;10.02;;;7.22;;
20067;SDS011;10194;50.824;7.134;2022-08-01T08:30:17;9.82;;;7.38;;
20067;SDS011;10194;50.824;7.134;2022-08-01T08:32:43;9.75;;;7.28;;
20067;SDS011;10194;50.824;7.134;2022-08-01T08:35:09;7.60;;;6.63;;
20067;SDS011;10194;50.824;7.134;2022-08-01T08:37:35;10.93;;;7.28;;
20067;SDS011;10194;50.824;7.134;2022-08-01T08:40:05;9.65;;;7.35;;
20067;SDS011;10194;50.824;7.134;2022-08-01T08:42:32;9.52;;;7.45;;
20067;SDS011;10194;50.824;7.134;2022-08-01T08:44:58;10.48;;;7.88;;
20067;SDS011;10194;50.824;7.134;2022-08-01T08:47:24;10.60;;;7.68;;
20067;SDS011;10194;50.824;7.134;2022-08-01T08:49:53;9.63;;;7.60;;
20067;SDS011;10194;50.824;7.134;2022-08-01T08:52:20;9.98;;;7.60;;
20067;SDS011;10194;50.824;7.134;2022-08-01T08:54:48;12.43;;;7.47;;
20067;SDS011;10194;50.824;7.134;2022-08-01T08:57:15;10.55;;;7.70;;
20067;SDS011;10194;50.824;7.134;2022-08-01T08:59:45;9.07;;;7.60;;
20067;SDS011;10194;50.824;7.134;2022-08-01T09:02:12;9.00;;;7.70;;
20067;SDS011;10194;50.824;7.134;2022-08-01T09:04:38;8.25;;;7.00;;
20067;SDS011;10194;50.824;7.134;2022-08-01T09:07:05;8.40;;;6.93;;
20067;SDS011;10194;50.824;7.134;2022-08-01T09:09:33;8.38;;;7.03;;
20067;SDS011;10194;50.824;7.134;2022-08-01T09:11:59;8.50;;;6.68;;
20067;SDS011;10194;50.824;7.134;2022-08-01T09:14:25;9.43;;;6.97;;
20067;SDS011;10194;50.824;7.134;2022-08-01T09:17:07;8.63;;;7.35;;
20067;SDS011;10194;50.824;7.134;2022-08-01T09:19:36;8.02;;;7.22;;
20067;SDS011;10194;50.824;7.134;2022-08-01T09:22:07;8.02;;;6.93;;
20067;SDS011;10194;50.824;7.134;2022-08-01T09:24:37;8.35;;;7.15;;
20067;SDS011;10194;50.824;7.134;2022-08-01T09:27:20;11.38;;;7.80;;
20067;SDS011;10194;50.824;7.134;2022-08-01T09:29:50;10.95;;;7.70;;
20067;SDS011;10194;50.824;7.134;2022-08-01T09:32:17;11.43;;;8.32;;
20067;SDS011;10194;50.824;7.134;2022-08-01T09:34:43;8.63;;;7.70;;
20067;SDS011;10194;50.824;7.134;2022-08-01T09:37:11;11.25;;;8.20;;
20067;SDS011;10194;50.824;7.134;2022-08-01T09:39:42;12.02;;;8.25;;
20067;SDS011;10194;50.824;7.134;2022-08-01T09:42:20;9.68;;;7.45;;
20067;SDS011;10194;50.824;7.134;2022-08-01T09:44:48;9.25;;;7.38;;
20067;SDS011;10194;50.824;7.134;2022-08-01T09:47:14;12.93;;;8.10;;
20067;SDS011;10194;50.824;7.134;2022-08-01T09:49:42;9.35;;;7.13;;
20067;SDS011;10194;50.824;7.134;2022-08-01T09:52:16;8.88;;;6.60;;
20067;SDS011;10194;50.824;7.134;2022-08-01T09:54:44;11.68;;;6.38;;
20067;SDS011;10194;50.824;7.134;2022-08-01T09:57:30;8.40;;;6.22;;
20067;SDS011;10194;50.824;7.134;2022-08-01T09:59:57;8.48;;;6.88;;
20067;SDS011;10194;50.824;7.134;2022-08-01T10:02:35;6.30;;;5.70;;
20067;SDS011;10194;50.824;7.134;2022-08-01T10:05:08;7.63;;;5.65;;
20067;SDS011;10194;50.824;7.134;2022-08-01T10:07:36;6.47;;;5.75;;
20067;SDS011;10194;50.824;7.134;2022-08-01T10:10:24;8.00;;;5.50;;
20067;SDS011;10194;50.824;7.134;2022-08-01T10:12:51;7.43;;;6.63;;
20067;SDS011;10194;50.824;7.134;2022-08-01T10:15:17;8.85;;;6.57;;
20067;SDS011;10194;50.824;7.134;2022-08-01T10:17:55;7.88;;;6.45;;
20067;SDS011;10194;50.824;7.134;2022-08-01T10:20:25;8.05;;;6.00;;
20067;SDS011;10194;50.824;7.134;2022-08-01T10:22:54;8.60;;;6.05;;
20067;SDS011;10194;50.824;7.134;2022-08-01T10:25:23;8.27;;;5.55;;
20067;SDS011;10194;50.824;7.134;2022-08-01T10:27:53;6.10;;;5.50;;
20067;SDS011;10194;50.824;7.134;2022-08-01T10:30:20;6.28;;;5.68;;
20067;SDS011;10194;50.824;7.134;2022-08-01T10:32:46;5.30;;;4.60;;
20067;SDS011;10194;50.824;7.134;2022-08-01T10:35:13;6.43;;;4.65;;
20067;SDS011;10194;50.824;7.134;2022-08-01T10:37:43;5.85;;;5.25;;
20067;SDS011;10194;50.824;7.134;2022-08-01T10:40:14;6.13;;;5.50;;
20067;SDS011;10194;50.824;7.134;2022-08-01T10:42:44;5.32;;;4.82;;
20067;SDS011;10194;50.824;7.134;2022-08-01T10:45:14;6.22;;;5.18;;
20067;SDS011;10194;50.824;7.134;2022-08-01T10:50:24;4.93;;;4.43;;
20067;SDS011;10194;50.824;7.134;2022-08-01T10:53:03;4.97;;;4.47;;
20067;SDS011;10194;50.824;7.134;2022-08-01T10:58:26;7.22;;;5.53;;
20067;SDS011;10194;50.824;7.134;2022-08-01T11:08:57;4.97;;;4.28;;
20067;SDS011;10194;50.824;7.134;2022-08-01T11:11:28;5.10;;;4.07;;
20067;SDS011;10194;50.824;7.134;2022-08-01T11:18:52;4.10;;;3.70;;
20067;SDS011;10194;50.824;7.134;2022-08-01T11:21:18;4.72;;;4.20;;
20067;SDS011;10194;50.824;7.134;2022-08-01T11:23:48;5.20;;;4.13;;
20067;SDS011;10194;50.824;7.134;2022-08-01T11:26:16;5.75;;;4.50;;
20067;SDS011;10194;50.824;7.134;2022-08-01T11:28:45;5.13;;;3.80;;
20067;SDS011;10194;50.824;7.134;2022-08-01T11:31:49;5.35;;;4.50;;
20067;SDS011;10194;50.824;7.134;2022-08-01T11:34:16;6.80;;;5.50;;
20067;SDS011;10194;50.824;7.134;2022-08-01T11:36:42;6.45;;;5.43;;
20067;SDS011;10194;50.824;7.134;2022-08-01T11:41:35;6.05;;;4.78;;
20067;SDS011;10194;50.824;7.134;2022-08-01T11:52:05;7.20;;;5.40;;
20067;SDS011;10194;50.824;7.134;2022-08-01T11:57:16;6.13;;;4.82;;
20067;SDS011;10194;50.824;7.134;2022-08-01T11:59:47;8.13;;;5.00;;
20067;SDS011;10194;50.824;7.134;2022-08-01T12:02:20;5.38;;;4.85;;
20067;SDS011;10194;50.824;7.134;2022-08-01T12:04:53;5.15;;;4.50;;
20067;SDS011;10194;50.824;7.134;2022-08-01T12:07:27;6.32;;;4.45;;
20067;SDS011;10194;50.824;7.134;2022-08-01T12:09:57;6.80;;;4.60;;
20067;SDS011;10194;50.824;7.134;2022-08-01T12:12:31;5.30;;;4.68;;
20067;SDS011;10194;50.824;7.134;2022-08-01T12:15:00;5.80;;;4.20;;
20067;SDS011;10194;50.824;7.134;2022-08-01T12:17:33;8.00;;;5.00;;
20067;SDS011;10194;50.824;7.134;2022-08-01T12:20:05;5.78;;;5.07;;
20067;SDS011;10194;50.824;7.134;2022-08-01T12:22:37;6.97;;;4.32;;
20067;SDS011;10194;50.824;7.134;2022-08-01T12:25:07;6.38;;;4.43;;
20067;SDS011;10194;50.824;7.134;2022-08-01T12:27:43;5.65;;;4.40;;
20067;SDS011;10194;50.824;7.134;2022-08-01T12:30:11;4.95;;;4.43;;
20067;SDS011;10194;50.824;7.134;2022-08-01T12:32:50;5.90;;;4.35;;
20067;SDS011;10194;50.824;7.134;2022-08-01T12:35:21;5.53;;;4.30;;
20067;SDS011;10194;50.824;7.134;2022-08-01T12:37:53;5.72;;;4.72;;
20067;SDS011;10194;50.824;7.134;2022-08-01T12:42:54;5.35;;;4.15;;
20067;SDS011;10194;50.824;7.134;2022-08-01T12:45:24;6.60;;;4.43;;
20067;SDS011;10194;50.824;7.134;2022-08-01T12:48:07;5.40;;;3.97;;
20067;SDS011;10194;50.824;7.134;2022-08-01T12:50:36;4.50;;;4.10;;
20067;SDS011;10194;50.824;7.134;2022-08-01T12:53:09;3.55;;;3.22;;
20067;SDS011;10194;50.824;7.134;2022-08-01T12:58:13;3.40;;;3.05;;
20067;SDS011;10194;50.824;7.134;2022-08-01T13:00:41;3.85;;;2.70;;
20067;SDS011;10194;50.824;7.134;2022-08-01T13:03:10;4.53;;;2.90;;
20067;SDS011;10194;50.824;7.134;2022-08-01T13:05:49;3.67;;;3.25;;
20067;SDS011;10194;50.824;7.134;2022-08-01T13:08:21;3.95;;;3.08;;
20067;SDS011;10194;50.824;7.134;2022-08-01T13:11:05;3.88;;;3.25;;
20067;SDS011;10194;50.824;7.134;2022-08-01T13:13:38;3.88;;;3.22;;
20067;SDS011;10194;50.824;7.134;2022-08-01T13:16:12;5.30;;;3.35;;
20067;SDS011;10194;50.824;7.134;2022-08-01T13:18:38;4.00;;;3.58;;
20067;SDS011;10194;50.824;7.134;2022-08-01T13:23:59;4.15;;;3.47;;
20067;SDS011;10194;50.824;7.134;2022-08-01T13:29:21;5.82;;;3.40;;
20067;SDS011;10194;50.824;7.134;2022-08-01T13:31:54;4.93;;;3.78;;
20067;SDS011;10194;50.824;7.134;2022-08-01T13:34:30;5.50;;;3.83;;
20067;SDS011;10194;50.824;7.134;2022-08-01T13:37:01;5.72;;;4.65;;
20067;SDS011;10194;50.824;7.134;2022-08-01T13:39:28;4.25;;;3.85;;
20067;SDS011;10194;50.824;7.134;2022-08-01T13:42:07;4.00;;;3.60;;
20067;SDS011;10194;50.824;7.134;2022-08-01T13:44:35;4.75;;;3.80;;
20067;SDS011;10194;50.824;7.134;2022-08-01T13:47:01;3.70;;;3.17;;
20067;SDS011;10194;50.824;7.134;2022-08-01T13:49:31;5.05;;;3.78;;
20067;SDS011;10194;50.824;7.134;2022-08-01T13:51:57;3.88;;;3.25;;
20067;SDS011;10194;50.824;7.134;2022-08-01T13:54:23;3.45;;;3.13;;
20067;SDS011;10194;50.824;7.134;2022-08-01T13:56:50;6.43;;;3.78;;
20067;SDS011;10194;50.824;7.134;2022-08-01T13:59:16;4.10;;;3.63;;
20067;SDS011;10194;50.824;7.134;2022-08-01T14:01:42;3.75;;;3.45;;
20067;SDS011;10194;50.824;7.134;2022-08-01T14:04:08;3.58;;;3.13;;
20067;SDS011;10194;50.824;7.134;2022-08-01T14:06:34;3.25;;;2.90;;
20067;SDS011;10194;50.824;7.134;2022-08-01T14:09:00;3.38;;;3.08;;
20067;SDS011;10194;50.824;7.134;2022-08-01T14:11:28;4.57;;;2.90;;
20067;SDS011;10194;50.824;7.134;2022-08-01T14:13:53;3.08;;;2.78;;
20067;SDS011;10194;50.824;7.134;2022-08-01T14:16:19;2.63;;;2.42;;
20067;SDS011;10194;50.824;7.134;2022-08-01T14:18:45;4.28;;;2.67;;
20067;SDS011;10194;50.824;7.134;2022-08-01T14:21:11;5.30;;;2.80;;
20067;SDS011;10194;50.824;7.134;2022-08-01T14:23:37;5.43;;;2.60;;
20067;SDS011;10194;50.824;7.134;2022-08-01T14:26:03;3.42;;;2.80;;
20067;SDS011;10194;50.824;7.134;2022-08-01T14:28:29;2.65;;;2.30;;
20067;SDS011;10194;50.824;7.134;2022-08-01T14:30:58;3.05;;;2.50;;
20067;SDS011;10194;50.824;7.134;2022-08-01T14:33:25;2.60;;;2.38;;
20067;SDS011;10194;50.824;7.134;2022-08-01T14:35:51;4.05;;;2.50;;
20067;SDS011;10194;50.824;7.134;2022-08-01T14:38:17;3.17;;;2.28;;
20067;SDS011;10194;50.824;7.134;2022-08-01T14:40:43;2.15;;;1.98;;
20067;SDS011;10194;50.824;7.134;2022-08-01T14:43:12;2.67;;;2.35;;
20067;SDS011;10194;50.824;7.134;2022-08-01T14:45:38;2.20;;;2.00;;
20067;SDS011;10194;50.824;7.134;2022-08-01T14:48:04;2.22;;;2.03;;
20067;SDS011;10194;50.824;7.134;2022-08-01T14:50:30;3.20;;;2.20;;
20067;SDS011;10194;50.824;7.134;2022-08-01T14:52:56;2.35;;;2.10;;
20067;SDS011;10194;50.824;7.134;2022-08-01T14:55:22;3.53;;;2.03;;
20067;SDS011;10194;50.824;7.134;2022-08-01T14:57:50;2.35;;;2.15;;
20067;SDS011;10194;50.824;7.134;2022-08-01T15:00:16;4.18;;;2.00;;
20067;SDS011;10194;50.824;7.134;2022-08-01T15:02:42;3.00;;;2.05;;
20067;SDS011;10194;50.824;7.134;2022-08-01T15:05:09;2.20;;;2.00;;
20067;SDS011;10194;50.824;7.134;2022-08-01T15:07:35;4.82;;;2.35;;
20067;SDS011;10194;50.824;7.134;2022-08-01T15:10:03;124.15;;;35.15;;
20067;SDS011;10194;50.824;7.134;2022-08-01T15:12:30;8.95;;;5.07;;
20067;SDS011;10194;50.824;7.134;2022-08-01T15:14:56;39.45;;;11.60;;
20067;SDS011;10194;50.824;7.134;2022-08-01T15:17:26;21.02;;;7.90;;
20067;SDS011;10194;50.824;7.134;2022-08-01T15:19:54;3.42;;;2.53;;
20067;SDS011;10194;50.824;7.134;2022-08-01T15:22:22;11.55;;;4.00;;
20067;SDS011;10194;50.824;7.134;2022-08-01T15:24:50;11.70;;;3.78;;
20067;SDS011;10194;50.824;7.134;2022-08-01T15:27:18;5.88;;;2.85;;
20067;SDS011;10194;50.824;7.134;2022-08-01T15:29:44;2.47;;;2.00;;
20067;SDS011;10194;50.824;7.134;2022-08-01T15:32:10;16.08;;;6.35;;
20067;SDS011;10194;50.824;7.134;2022-08-01T15:34:36;2.28;;;2.08;;
20067;SDS011;10194;50.824;7.134;2022-08-01T15:37:03;3.17;;;2.55;;
20067;SDS011;10194;50.824;7.134;2022-08-01T15:39:30;2.63;;;1.98;;
20067;SDS011;10194;50.824;7.134;2022-08-01T15:41:58;1.80;;;1.70;;
20067;SDS011;10194;50.824;7.134;2022-08-01T15:44:29;3.20;;;2.00;;